Météo Cheval Rigon

 

Relevés d'aujourd'hui



 

15/12/18
Time         Wind Dir   Wind Spd  Wind Gust   Humidity       Temp   Tot Rain Wind Chill  Dew Point   Barom SL Humidity R Temp Out R Tot Rain R   WindCh R   Dew Pt R SL Barom R Temp Out H Temp Out L  DailyRain   HourRain   24HrRain   RainRate  MonthRain
                          km/hr      km/hr          %         C         mm         C         C         mb       %/hr      C/hr      mm/hr      C/hr      C/hr      mm/hr         C         C         mm         mm         mm      mm/hr         mm
0:00                5          0          2         97       -3.3     875.20       -3.3       -3.7    1025.07       -0.1       0.06      0.000       0.06       0.05      0.428       -3.3       -3.3       0.00       0.00       0.00      0.000      34.40
0:15                5          0          6         97       -3.3     875.20       -3.3       -3.7    1024.63       -0.1       0.09      0.000       0.12       0.08     -0.054       -3.3       -3.3       0.00       0.00       0.00      0.000      34.40
0:30                5          0          5         97       -3.3     875.20       -3.3       -3.7    1024.43       -0.0       0.07      0.000       0.11       0.06     -0.219       -3.3       -3.3       0.00       0.00       0.00      0.000      34.40
0:45                5          0          5         97       -3.3     875.20       -3.3       -3.7    1024.32       -0.0       0.01      0.000       0.08       0.01     -0.255       -3.3       -3.3       0.00       0.00       0.00      0.000      34.40
1:00                5          0          2         97       -3.4     875.20       -3.4       -3.9    1024.36       -0.0      -0.08      0.000      -0.03      -0.09     -0.150       -3.3       -3.4       0.00       0.00       0.00      0.000      34.40
1:15                5          0          0         97       -3.6     875.20       -3.6       -4.0    1024.12       -0.0      -0.17      0.000      -0.13      -0.17     -0.313       -3.3       -3.6       0.00       0.00       0.00      0.000      34.40
1:30                5          0          3         97       -3.6     875.20       -3.6       -4.0    1024.36       -0.0      -0.13      0.000      -0.09      -0.13     -0.036       -3.3       -3.6       0.00       0.00       0.00      0.000      34.40
1:45                5          0          0         97       -3.6     875.20       -3.6       -4.0    1024.43       -0.0      -0.10      0.000      -0.07      -0.10      0.038       -3.3       -3.6       0.00       0.00       0.00      0.000      34.40
2:00                5          0          0         97       -3.6     875.20       -3.6       -4.0    1024.43       -0.0      -0.13      0.000      -0.10      -0.13      0.038       -3.3       -3.6       0.00       0.00       0.00      0.000      34.40
2:15                5          0          2         97       -3.7     875.20       -3.7       -4.1    1024.53       -0.0      -0.15      0.000      -0.13      -0.15      0.126       -3.3       -3.7       0.00       0.00       0.00      0.000      34.40
2:30                5          0          5         97       -3.8     875.20       -3.8       -4.2    1024.49       -0.0      -0.22      0.000      -0.18      -0.22      0.062       -3.3       -3.8       0.00       0.00       0.00      0.000      34.40
2:45                5          0          5         97       -3.8     875.20       -3.8       -4.2    1024.53       -0.0      -0.22      0.000      -0.18      -0.22      0.069       -3.3       -3.8       0.00       0.00       0.00      0.000      34.40
3:00                5          0          0         97       -3.9     875.20       -3.9       -4.3    1024.56        0.0      -0.22      0.000      -0.19      -0.22      0.079       -3.3       -3.9       0.00       0.00       0.00      0.000      34.40
3:15                5          0          2         97       -3.8     875.20       -3.8       -4.2    1024.53        0.0      -0.12      0.000      -0.10      -0.12      0.019       -3.3       -3.9       0.00       0.00       0.00      0.000      34.40
3:30              109          0          8         96       -3.8     875.20       -3.8       -4.4    1024.26       -0.8      -0.10      0.000      -0.04      -0.21     -0.227       -3.3       -3.9       0.00       0.00       0.00      0.000      34.40
3:45              109          0          3         96       -3.8     875.20       -3.8       -4.4    1024.22       -0.6      -0.07      0.000      -0.02      -0.16     -0.194       -3.3       -3.9       0.00       0.00       0.00      0.000      34.40
4:00              207          0          5         96       -3.9     875.20       -3.9       -4.5    1024.43       -0.5      -0.15      0.000      -0.09      -0.22      0.015       -3.3       -3.9       0.00       0.00       0.00      0.000      34.40
4:15              208          2          3         96       -4.1     875.20       -4.1       -4.6    1024.29       -0.4      -0.22      0.000      -0.17      -0.27     -0.106       -3.3       -4.1       0.00       0.00       0.00      0.000      34.40
4:30              208          0          2         95       -4.1     875.20       -4.1       -4.8    1024.32       -1.1      -0.22      0.000      -0.18      -0.37     -0.065       -3.3       -4.1       0.00       0.00       0.00      0.000      34.40
4:45              208          0          2         95       -4.2     875.20       -4.2       -4.8    1024.09       -0.9      -0.23      0.000      -0.19      -0.35     -0.259       -3.3       -4.2       0.00       0.00       0.00      0.000      34.40
5:00              162          0          3         95       -4.2     875.20       -4.2       -4.8    1024.09       -0.7      -0.18      0.000      -0.15      -0.28     -0.197       -3.3       -4.2       0.00       0.00       0.00      0.000      34.40
5:15              153          0          3         95       -4.4     875.20       -4.4       -5.1    1024.05       -0.6      -0.34      0.000      -0.31      -0.42     -0.182       -3.3       -4.4       0.00       0.00       0.00      0.000      34.40
5:30              153          0          2         94       -4.9     875.20       -4.9       -5.7    1024.19       -1.2      -0.71      0.000      -0.69      -0.88     -0.011       -3.3       -4.9       0.00       0.00       0.00      0.000      34.40
5:45              153          0          2         94       -5.3     875.20       -5.3       -6.1    1024.32       -1.0      -0.89      0.000      -0.87      -1.02      0.115       -3.3       -5.3       0.00       0.00       0.00      0.000      34.40
6:00              111          0          5         94       -5.4     875.20       -5.4       -6.2    1024.56       -0.7      -0.77      0.000      -0.72      -0.87      0.329       -3.3       -5.5       0.00       0.00       0.00      0.000      34.40
6:15               97          3          5         94       -5.3     875.20       -6.4       -6.1    1024.66       -0.6      -0.51      0.000      -1.52      -0.59      0.340       -3.3       -5.5       0.00       0.00       0.00      0.000      34.40
6:30              115          3          5         94       -5.3     875.20       -6.4       -6.1    1024.39       -0.5      -0.40      0.000      -1.40      -0.46      0.012       -3.3       -5.5       0.00       0.00       0.00      0.000      34.40
6:45              109          3          8         93       -5.4     875.20       -6.6       -6.4    1024.09       -1.1      -0.47      0.000      -1.24      -0.62     -0.235       -3.3       -5.5       0.00       0.00       0.00      0.000      34.40
7:00              117          3          6         93       -5.6     875.20       -6.7       -6.6    1023.99       -0.9      -0.51      0.000      -1.22      -0.63     -0.282       -3.3       -5.6       0.00       0.00       0.00      0.000      34.40
7:15               97          3          8         93       -5.6     875.20       -6.7       -6.5    1023.88       -0.7      -0.34      0.000      -0.86      -0.43     -0.306       -3.3       -5.7       0.00       0.00       0.00      0.000      34.40
7:30              125          0          8         93       -5.6     875.20       -5.6       -6.6    1023.88       -0.5      -0.32      0.000       0.22      -0.40     -0.237       -3.3       -5.7       0.00       0.00       0.00      0.000      34.40
7:45              105          3          5         93       -5.8     875.20       -6.9       -6.7    1023.48       -0.4      -0.39      0.000      -1.06      -0.44     -0.538       -3.3       -5.8       0.00       0.00       0.00      0.000      34.40
8:00              113          5          8         93       -5.4     875.20       -7.6       -6.4    1023.48       -0.4      -0.01      0.000      -1.54      -0.06     -0.410       -3.3       -5.8       0.00       0.00       0.00      0.000      34.40
8:15              117          0          5         93       -5.4     875.20       -5.4       -6.3    1023.75       -0.2       0.03      0.000       0.63      -0.00     -0.075       -3.3       -5.8       0.00       0.00       0.00      0.000      34.40
8:30              117          0          0         93       -5.6     875.20       -5.6       -6.5    1023.71       -0.2      -0.12      0.000       0.35      -0.14     -0.088       -3.3       -5.8       0.00       0.00       0.00      0.000      34.40
8:45              117          0          2         93       -5.6     875.20       -5.6       -6.6    1023.92       -0.1      -0.14      0.000       0.22      -0.16      0.096       -3.3       -5.8       0.00       0.00       0.00      0.000      34.40
9:00              115          3          5         93       -5.2     875.20       -6.3       -6.2    1023.95       -0.2       0.25      0.000      -0.49       0.22      0.102       -3.3       -5.8       0.00       0.00       0.00      0.000      34.40
9:15              120          5          8         93       -4.8     875.20       -6.9       -5.7    1023.88       -0.1       0.59      0.000      -1.05       0.57      0.004       -3.3       -5.8       0.00       0.00       0.00      0.000      34.40
9:30              121          2          8         92       -4.4     875.20       -4.4       -5.5    1023.82       -0.9       0.76      0.000       1.44       0.63     -0.058       -3.3       -5.8       0.00       0.00       0.00      0.000      34.40
9:45              103          2          8         92       -4.1     875.20       -4.1       -5.2    1023.82       -0.6       0.94      0.000       1.80       0.84     -0.044       -3.3       -5.8       0.00       0.00       0.00      0.000      34.40
10:00              98          0          8         91       -3.8     875.20       -3.8       -5.1    1023.92       -1.3       0.91      0.000       1.65       0.71      0.067       -3.3       -5.8       0.00       0.00       0.00      0.000      34.40
10:15              98          0          3         92       -3.5     875.20       -3.5       -4.6    1023.85       -0.1       1.02      0.000       1.60       1.00      0.002       -3.3       -5.8       0.00       0.00       0.00      0.000      34.40
10:30              98          0          2         92       -3.0     875.20       -3.0       -4.1    1023.88       -0.1       1.24      0.000       1.70       1.22      0.029       -3.0       -5.8       0.00       0.00       0.00      0.000      34.40
10:45              98          0          0         92       -2.0     875.20       -2.0       -3.1    1023.78       -0.1       1.86      0.000       2.22       1.84     -0.068       -2.0       -5.8       0.00       0.00       0.00      0.000      34.40
11:00              98          0          2         91       -1.2     875.20       -1.2       -2.4    1023.65       -1.0       2.18      0.000       2.45       2.01     -0.161       -1.2       -5.8       0.00       0.00       0.00      0.000      34.40

 


 

 

 

Retour accueil